sensor_id;sensor_type;location;lat;lon;timestamp;P1;durP1;ratioP1;P2;durP2;ratioP2
66702;SDS011;60933;46.398;-63.798;2023-04-24T00:00:22;5.82;;;2.10;;
66702;SDS011;60933;46.398;-63.798;2023-04-24T00:02:48;6.55;;;3.10;;
66702;SDS011;60933;46.398;-63.798;2023-04-24T00:05:15;7.82;;;2.97;;
66702;SDS011;60933;46.398;-63.798;2023-04-24T00:07:42;6.05;;;2.35;;
66702;SDS011;60933;46.398;-63.798;2023-04-24T00:10:10;6.78;;;2.63;;
66702;SDS011;60933;46.398;-63.798;2023-04-24T00:12:37;5.85;;;2.55;;
66702;SDS011;60933;46.398;-63.798;2023-04-24T00:15:04;6.97;;;3.13;;
66702;SDS011;60933;46.398;-63.798;2023-04-24T00:17:31;6.93;;;2.67;;
66702;SDS011;60933;46.398;-63.798;2023-04-24T00:19:57;7.13;;;3.08;;
66702;SDS011;60933;46.398;-63.798;2023-04-24T00:22:29;6.30;;;2.65;;
66702;SDS011;60933;46.398;-63.798;2023-04-24T00:24:56;7.47;;;2.88;;
66702;SDS011;60933;46.398;-63.798;2023-04-24T00:27:23;9.93;;;2.65;;
66702;SDS011;60933;46.398;-63.798;2023-04-24T00:29:49;7.07;;;2.55;;
66702;SDS011;60933;46.398;-63.798;2023-04-24T00:32:15;9.75;;;3.03;;
66702;SDS011;60933;46.398;-63.798;2023-04-24T00:34:42;7.18;;;2.88;;
66702;SDS011;60933;46.398;-63.798;2023-04-24T00:37:09;7.15;;;3.08;;
66702;SDS011;60933;46.398;-63.798;2023-04-24T00:39:35;6.70;;;2.95;;
66702;SDS011;60933;46.398;-63.798;2023-04-24T00:42:01;9.73;;;3.15;;
66702;SDS011;60933;46.398;-63.798;2023-04-24T00:44:27;8.27;;;2.42;;
66702;SDS011;60933;46.398;-63.798;2023-04-24T00:46:54;10.75;;;2.83;;
66702;SDS011;60933;46.398;-63.798;2023-04-24T00:49:21;6.90;;;3.03;;
66702;SDS011;60933;46.398;-63.798;2023-04-24T00:51:47;6.35;;;2.88;;
66702;SDS011;60933;46.398;-63.798;2023-04-24T00:54:14;8.63;;;2.30;;
66702;SDS011;60933;46.398;-63.798;2023-04-24T00:56:41;10.27;;;2.75;;
66702;SDS011;60933;46.398;-63.798;2023-04-24T00:59:09;7.93;;;2.97;;
66702;SDS011;60933;46.398;-63.798;2023-04-24T01:01:35;6.55;;;2.78;;
66702;SDS011;60933;46.398;-63.798;2023-04-24T01:04:01;5.53;;;2.65;;
66702;SDS011;60933;46.398;-63.798;2023-04-24T01:06:28;6.47;;;2.55;;
66702;SDS011;60933;46.398;-63.798;2023-04-24T01:08:58;16.95;;;3.03;;
66702;SDS011;60933;46.398;-63.798;2023-04-24T01:11:25;4.38;;;2.97;;
66702;SDS011;60933;46.398;-63.798;2023-04-24T01:13:51;9.10;;;3.03;;
66702;SDS011;60933;46.398;-63.798;2023-04-24T01:16:18;5.15;;;2.55;;
66702;SDS011;60933;46.398;-63.798;2023-04-24T01:18:48;8.25;;;2.60;;
66702;SDS011;60933;46.398;-63.798;2023-04-24T01:21:14;9.43;;;2.90;;
66702;SDS011;60933;46.398;-63.798;2023-04-24T01:23:44;6.50;;;2.65;;
66702;SDS011;60933;46.398;-63.798;2023-04-24T01:26:12;5.68;;;2.90;;
66702;SDS011;60933;46.398;-63.798;2023-04-24T01:28:41;4.45;;;2.20;;
66702;SDS011;60933;46.398;-63.798;2023-04-24T01:31:07;5.80;;;2.88;;
66702;SDS011;60933;46.398;-63.798;2023-04-24T01:33:34;6.78;;;3.10;;
66702;SDS011;60933;46.398;-63.798;2023-04-24T01:36:00;7.10;;;2.80;;
66702;SDS011;60933;46.398;-63.798;2023-04-24T01:38:26;7.18;;;2.80;;
66702;SDS011;60933;46.398;-63.798;2023-04-24T01:40:53;9.82;;;2.75;;
66702;SDS011;60933;46.398;-63.798;2023-04-24T01:43:19;6.38;;;2.67;;
66702;SDS011;60933;46.398;-63.798;2023-04-24T01:45:45;5.82;;;2.30;;
66702;SDS011;60933;46.398;-63.798;2023-04-24T01:48:12;7.07;;;2.70;;
66702;SDS011;60933;46.398;-63.798;2023-04-24T01:50:38;7.60;;;2.40;;
66702;SDS011;60933;46.398;-63.798;2023-04-24T01:53:05;6.18;;;2.58;;
66702;SDS011;60933;46.398;-63.798;2023-04-24T01:55:31;7.22;;;2.90;;
66702;SDS011;60933;46.398;-63.798;2023-04-24T01:57:57;6.28;;;2.30;;
66702;SDS011;60933;46.398;-63.798;2023-04-24T02:00:25;6.40;;;2.50;;
66702;SDS011;60933;46.398;-63.798;2023-04-24T02:02:51;5.65;;;2.55;;
66702;SDS011;60933;46.398;-63.798;2023-04-24T02:05:18;5.50;;;2.70;;
66702;SDS011;60933;46.398;-63.798;2023-04-24T02:07:44;5.38;;;2.92;;
66702;SDS011;60933;46.398;-63.798;2023-04-24T02:10:10;7.43;;;3.10;;
66702;SDS011;60933;46.398;-63.798;2023-04-24T02:12:37;7.28;;;3.33;;
66702;SDS011;60933;46.398;-63.798;2023-04-24T02:15:03;5.22;;;2.50;;
66702;SDS011;60933;46.398;-63.798;2023-04-24T02:17:30;7.18;;;2.20;;
66702;SDS011;60933;46.398;-63.798;2023-04-24T02:19:56;4.65;;;2.22;;
66702;SDS011;60933;46.398;-63.798;2023-04-24T02:22:22;3.88;;;2.25;;
66702;SDS011;60933;46.398;-63.798;2023-04-24T02:24:48;3.92;;;2.20;;
66702;SDS011;60933;46.398;-63.798;2023-04-24T02:27:15;5.97;;;2.38;;
66702;SDS011;60933;46.398;-63.798;2023-04-24T02:29:41;7.70;;;2.45;;
66702;SDS011;60933;46.398;-63.798;2023-04-24T02:32:07;5.90;;;2.13;;
66702;SDS011;60933;46.398;-63.798;2023-04-24T02:34:37;6.35;;;1.90;;
66702;SDS011;60933;46.398;-63.798;2023-04-24T02:37:03;5.07;;;2.05;;
66702;SDS011;60933;46.398;-63.798;2023-04-24T02:39:30;7.20;;;2.67;;
66702;SDS011;60933;46.398;-63.798;2023-04-24T02:41:56;6.35;;;2.17;;
66702;SDS011;60933;46.398;-63.798;2023-04-24T02:44:22;6.07;;;2.22;;
66702;SDS011;60933;46.398;-63.798;2023-04-24T02:46:48;4.93;;;2.13;;
66702;SDS011;60933;46.398;-63.798;2023-04-24T02:49:14;4.95;;;2.35;;
66702;SDS011;60933;46.398;-63.798;2023-04-24T02:51:40;7.53;;;2.20;;
66702;SDS011;60933;46.398;-63.798;2023-04-24T02:54:09;7.85;;;1.70;;
66702;SDS011;60933;46.398;-63.798;2023-04-24T02:56:36;19.95;;;3.13;;
66702;SDS011;60933;46.398;-63.798;2023-04-24T02:59:02;15.88;;;3.28;;
66702;SDS011;60933;46.398;-63.798;2023-04-24T03:01:28;4.82;;;2.42;;
66702;SDS011;60933;46.398;-63.798;2023-04-24T03:03:55;13.90;;;2.40;;
66702;SDS011;60933;46.398;-63.798;2023-04-24T03:06:21;14.63;;;3.33;;
66702;SDS011;60933;46.398;-63.798;2023-04-24T03:08:47;22.73;;;2.63;;
66702;SDS011;60933;46.398;-63.798;2023-04-24T03:11:13;17.42;;;2.42;;
66702;SDS011;60933;46.398;-63.798;2023-04-24T03:13:39;14.57;;;2.53;;
66702;SDS011;60933;46.398;-63.798;2023-04-24T03:16:05;15.25;;;3.30;;
66702;SDS011;60933;46.398;-63.798;2023-04-24T03:18:31;6.47;;;1.95;;
66702;SDS011;60933;46.398;-63.798;2023-04-24T03:20:57;14.77;;;2.28;;
66702;SDS011;60933;46.398;-63.798;2023-04-24T03:23:23;14.98;;;1.70;;
66702;SDS011;60933;46.398;-63.798;2023-04-24T03:25:50;13.82;;;3.03;;
66702;SDS011;60933;46.398;-63.798;2023-04-24T03:28:16;7.72;;;2.10;;
66702;SDS011;60933;46.398;-63.798;2023-04-24T03:30:42;5.72;;;2.08;;
66702;SDS011;60933;46.398;-63.798;2023-04-24T03:33:08;17.42;;;3.13;;
66702;SDS011;60933;46.398;-63.798;2023-04-24T03:35:35;17.48;;;2.58;;
66702;SDS011;60933;46.398;-63.798;2023-04-24T03:38:01;7.93;;;2.40;;
66702;SDS011;60933;46.398;-63.798;2023-04-24T03:40:29;13.50;;;2.55;;
66702;SDS011;60933;46.398;-63.798;2023-04-24T03:42:55;11.65;;;2.58;;
66702;SDS011;60933;46.398;-63.798;2023-04-24T03:45:21;16.42;;;2.80;;
66702;SDS011;60933;46.398;-63.798;2023-04-24T03:47:48;6.15;;;2.63;;
66702;SDS011;60933;46.398;-63.798;2023-04-24T03:50:14;13.82;;;2.63;;
66702;SDS011;60933;46.398;-63.798;2023-04-24T03:52:40;18.90;;;2.75;;
66702;SDS011;60933;46.398;-63.798;2023-04-24T03:55:06;8.00;;;2.58;;
66702;SDS011;60933;46.398;-63.798;2023-04-24T03:57:32;28.60;;;2.97;;
66702;SDS011;60933;46.398;-63.798;2023-04-24T03:59:58;17.63;;;3.08;;
66702;SDS011;60933;46.398;-63.798;2023-04-24T04:02:25;8.57;;;2.40;;
66702;SDS011;60933;46.398;-63.798;2023-04-24T04:04:51;7.03;;;2.28;;
66702;SDS011;60933;46.398;-63.798;2023-04-24T04:07:17;13.65;;;2.42;;
66702;SDS011;60933;46.398;-63.798;2023-04-24T04:09:43;22.23;;;3.22;;
66702;SDS011;60933;46.398;-63.798;2023-04-24T04:12:09;6.82;;;3.00;;
66702;SDS011;60933;46.398;-63.798;2023-04-24T04:14:35;13.35;;;2.60;;
66702;SDS011;60933;46.398;-63.798;2023-04-24T04:17:01;5.75;;;3.03;;
66702;SDS011;60933;46.398;-63.798;2023-04-24T04:19:27;21.58;;;3.83;;
66702;SDS011;60933;46.398;-63.798;2023-04-24T04:21:53;12.15;;;3.03;;
66702;SDS011;60933;46.398;-63.798;2023-04-24T04:24:21;5.50;;;2.47;;
66702;SDS011;60933;46.398;-63.798;2023-04-24T04:26:47;18.65;;;3.67;;
66702;SDS011;60933;46.398;-63.798;2023-04-24T04:29:16;22.88;;;3.40;;
66702;SDS011;60933;46.398;-63.798;2023-04-24T04:31:44;14.93;;;2.90;;
66702;SDS011;60933;46.398;-63.798;2023-04-24T04:34:10;13.77;;;3.17;;
66702;SDS011;60933;46.398;-63.798;2023-04-24T04:36:37;20.48;;;3.78;;
66702;SDS011;60933;46.398;-63.798;2023-04-24T04:39:05;12.32;;;3.20;;
66702;SDS011;60933;46.398;-63.798;2023-04-24T04:41:32;17.90;;;3.30;;
66702;SDS011;60933;46.398;-63.798;2023-04-24T04:44:00;43.33;;;4.60;;
66702;SDS011;60933;46.398;-63.798;2023-04-24T04:46:30;7.30;;;2.53;;
66702;SDS011;60933;46.398;-63.798;2023-04-24T04:48:59;8.57;;;3.63;;
66702;SDS011;60933;46.398;-63.798;2023-04-24T04:51:25;11.50;;;3.10;;
66702;SDS011;60933;46.398;-63.798;2023-04-24T04:53:52;8.60;;;3.03;;
66702;SDS011;60933;46.398;-63.798;2023-04-24T04:56:18;13.20;;;4.13;;
66702;SDS011;60933;46.398;-63.798;2023-04-24T04:58:45;12.32;;;3.50;;
66702;SDS011;60933;46.398;-63.798;2023-04-24T05:01:11;10.05;;;3.45;;
66702;SDS011;60933;46.398;-63.798;2023-04-24T05:03:37;7.95;;;3.20;;
66702;SDS011;60933;46.398;-63.798;2023-04-24T05:06:03;8.50;;;3.65;;
66702;SDS011;60933;46.398;-63.798;2023-04-24T05:08:30;12.23;;;4.90;;
66702;SDS011;60933;46.398;-63.798;2023-04-24T05:10:56;14.88;;;3.60;;
66702;SDS011;60933;46.398;-63.798;2023-04-24T05:13:22;11.32;;;3.58;;
66702;SDS011;60933;46.398;-63.798;2023-04-24T05:15:48;12.23;;;3.50;;
66702;SDS011;60933;46.398;-63.798;2023-04-24T05:18:14;10.57;;;3.80;;
66702;SDS011;60933;46.398;-63.798;2023-04-24T05:20:40;8.80;;;3.58;;
66702;SDS011;60933;46.398;-63.798;2023-04-24T05:23:09;13.80;;;4.10;;
66702;SDS011;60933;46.398;-63.798;2023-04-24T05:25:35;10.35;;;4.47;;
66702;SDS011;60933;46.398;-63.798;2023-04-24T05:28:01;11.02;;;3.45;;
66702;SDS011;60933;46.398;-63.798;2023-04-24T05:30:28;14.30;;;3.42;;
66702;SDS011;60933;46.398;-63.798;2023-04-24T05:32:54;15.60;;;3.70;;
66702;SDS011;60933;46.398;-63.798;2023-04-24T05:37:46;5.32;;;2.08;;
66702;SDS011;60933;46.398;-63.798;2023-04-24T05:40:12;6.82;;;3.15;;
66702;SDS011;60933;46.398;-63.798;2023-04-24T05:42:38;20.30;;;3.03;;
66702;SDS011;60933;46.398;-63.798;2023-04-24T05:45:05;11.57;;;3.05;;
66702;SDS011;60933;46.398;-63.798;2023-04-24T05:47:32;6.05;;;2.70;;
66702;SDS011;60933;46.398;-63.798;2023-04-24T05:49:58;11.35;;;3.15;;
66702;SDS011;60933;46.398;-63.798;2023-04-24T05:52:24;10.07;;;3.33;;
66702;SDS011;60933;46.398;-63.798;2023-04-24T05:54:50;6.30;;;2.75;;
66702;SDS011;60933;46.398;-63.798;2023-04-24T05:57:16;15.07;;;2.40;;
66702;SDS011;60933;46.398;-63.798;2023-04-24T05:59:42;4.93;;;2.30;;
66702;SDS011;60933;46.398;-63.798;2023-04-24T06:02:08;7.22;;;2.28;;
66702;SDS011;60933;46.398;-63.798;2023-04-24T06:04:34;7.15;;;2.05;;
66702;SDS011;60933;46.398;-63.798;2023-04-24T06:07:01;9.90;;;2.13;;
66702;SDS011;60933;46.398;-63.798;2023-04-24T06:11:52;7.78;;;2.03;;
66702;SDS011;60933;46.398;-63.798;2023-04-24T06:14:19;7.03;;;2.10;;
66702;SDS011;60933;46.398;-63.798;2023-04-24T06:16:45;6.13;;;1.90;;
66702;SDS011;60933;46.398;-63.798;2023-04-24T06:19:11;6.07;;;2.15;;
66702;SDS011;60933;46.398;-63.798;2023-04-24T06:21:37;8.60;;;2.45;;
66702;SDS011;60933;46.398;-63.798;2023-04-24T06:24:03;6.05;;;2.30;;
66702;SDS011;60933;46.398;-63.798;2023-04-24T06:26:30;6.00;;;2.35;;
66702;SDS011;60933;46.398;-63.798;2023-04-24T06:28:56;7.07;;;2.45;;
66702;SDS011;60933;46.398;-63.798;2023-04-24T06:31:24;9.07;;;2.38;;
66702;SDS011;60933;46.398;-63.798;2023-04-24T06:33:50;7.38;;;2.50;;
66702;SDS011;60933;46.398;-63.798;2023-04-24T06:36:16;10.63;;;2.45;;
66702;SDS011;60933;46.398;-63.798;2023-04-24T06:38:42;7.30;;;2.30;;
66702;SDS011;60933;46.398;-63.798;2023-04-24T06:41:09;6.25;;;2.40;;
66702;SDS011;60933;46.398;-63.798;2023-04-24T06:43:35;6.95;;;2.78;;
66702;SDS011;60933;46.398;-63.798;2023-04-24T06:46:02;7.85;;;2.50;;
66702;SDS011;60933;46.398;-63.798;2023-04-24T06:48:29;9.52;;;2.80;;
66702;SDS011;60933;46.398;-63.798;2023-04-24T06:50:55;10.52;;;2.60;;
66702;SDS011;60933;46.398;-63.798;2023-04-24T06:53:21;6.18;;;2.75;;
66702;SDS011;60933;46.398;-63.798;2023-04-24T06:55:47;6.72;;;2.75;;
66702;SDS011;60933;46.398;-63.798;2023-04-24T06:58:13;8.95;;;2.60;;
66702;SDS011;60933;46.398;-63.798;2023-04-24T07:00:41;9.70;;;2.95;;
66702;SDS011;60933;46.398;-63.798;2023-04-24T07:03:07;6.10;;;2.60;;
66702;SDS011;60933;46.398;-63.798;2023-04-24T07:05:33;7.03;;;2.25;;
66702;SDS011;60933;46.398;-63.798;2023-04-24T07:08:00;9.93;;;2.70;;
66702;SDS011;60933;46.398;-63.798;2023-04-24T07:10:27;8.82;;;2.80;;
66702;SDS011;60933;46.398;-63.798;2023-04-24T07:12:54;8.23;;;2.50;;
66702;SDS011;60933;46.398;-63.798;2023-04-24T07:15:22;11.20;;;3.40;;
66702;SDS011;60933;46.398;-63.798;2023-04-24T07:17:49;6.53;;;2.30;;
66702;SDS011;60933;46.398;-63.798;2023-04-24T07:20:15;11.80;;;2.35;;
66702;SDS011;60933;46.398;-63.798;2023-04-24T07:22:41;6.15;;;3.00;;
66702;SDS011;60933;46.398;-63.798;2023-04-24T07:25:07;8.60;;;2.80;;
66702;SDS011;60933;46.398;-63.798;2023-04-24T07:27:34;7.40;;;2.08;;
66702;SDS011;60933;46.398;-63.798;2023-04-24T07:30:01;22.67;;;2.85;;
66702;SDS011;60933;46.398;-63.798;2023-04-24T07:32:32;7.10;;;2.50;;
66702;SDS011;60933;46.398;-63.798;2023-04-24T07:34:58;14.20;;;2.42;;
66702;SDS011;60933;46.398;-63.798;2023-04-24T07:37:24;15.50;;;2.80;;
66702;SDS011;60933;46.398;-63.798;2023-04-24T07:39:50;7.80;;;3.05;;
66702;SDS011;60933;46.398;-63.798;2023-04-24T07:42:16;22.77;;;3.40;;
66702;SDS011;60933;46.398;-63.798;2023-04-24T07:44:42;11.75;;;2.40;;
66702;SDS011;60933;46.398;-63.798;2023-04-24T07:47:09;9.95;;;2.30;;
66702;SDS011;60933;46.398;-63.798;2023-04-24T07:49:35;6.82;;;2.67;;
66702;SDS011;60933;46.398;-63.798;2023-04-24T07:52:02;13.25;;;3.03;;
66702;SDS011;60933;46.398;-63.798;2023-04-24T07:54:28;9.43;;;2.75;;
66702;SDS011;60933;46.398;-63.798;2023-04-24T07:56:54;8.80;;;2.85;;
66702;SDS011;60933;46.398;-63.798;2023-04-24T07:59:21;12.73;;;2.90;;
66702;SDS011;60933;46.398;-63.798;2023-04-24T08:01:47;7.35;;;2.20;;
66702;SDS011;60933;46.398;-63.798;2023-04-24T08:04:13;8.15;;;2.88;;
66702;SDS011;60933;46.398;-63.798;2023-04-24T08:06:39;6.72;;;2.95;;
66702;SDS011;60933;46.398;-63.798;2023-04-24T08:09:05;10.52;;;3.30;;
66702;SDS011;60933;46.398;-63.798;2023-04-24T08:11:32;7.30;;;2.90;;
66702;SDS011;60933;46.398;-63.798;2023-04-24T08:13:58;7.07;;;3.08;;
66702;SDS011;60933;46.398;-63.798;2023-04-24T08:16:25;8.57;;;3.15;;
66702;SDS011;60933;46.398;-63.798;2023-04-24T08:18:51;9.23;;;2.60;;
66702;SDS011;60933;46.398;-63.798;2023-04-24T08:21:18;8.07;;;3.42;;
66702;SDS011;60933;46.398;-63.798;2023-04-24T08:23:45;8.20;;;2.70;;
66702;SDS011;60933;46.398;-63.798;2023-04-24T08:26:12;11.25;;;3.17;;
66702;SDS011;60933;46.398;-63.798;2023-04-24T08:28:39;8.90;;;3.20;;
66702;SDS011;60933;46.398;-63.798;2023-04-24T08:31:05;6.50;;;2.72;;
66702;SDS011;60933;46.398;-63.798;2023-04-24T08:33:31;9.95;;;3.33;;
66702;SDS011;60933;46.398;-63.798;2023-04-24T08:36:03;10.23;;;3.17;;
66702;SDS011;60933;46.398;-63.798;2023-04-24T08:38:30;9.82;;;3.15;;
66702;SDS011;60933;46.398;-63.798;2023-04-24T08:40:57;7.70;;;3.30;;
66702;SDS011;60933;46.398;-63.798;2023-04-24T08:43:24;9.00;;;2.88;;
66702;SDS011;60933;46.398;-63.798;2023-04-24T08:45:52;12.77;;;3.00;;
66702;SDS011;60933;46.398;-63.798;2023-04-24T08:48:21;11.90;;;3.10;;
66702;SDS011;60933;46.398;-63.798;2023-04-24T08:50:48;8.25;;;3.15;;
66702;SDS011;60933;46.398;-63.798;2023-04-24T08:53:16;8.05;;;3.20;;
66702;SDS011;60933;46.398;-63.798;2023-04-24T08:55:44;10.73;;;3.65;;
66702;SDS011;60933;46.398;-63.798;2023-04-24T08:58:13;11.02;;;3.25;;
66702;SDS011;60933;46.398;-63.798;2023-04-24T09:00:40;13.15;;;3.65;;
66702;SDS011;60933;46.398;-63.798;2023-04-24T09:03:13;7.90;;;3.45;;
66702;SDS011;60933;46.398;-63.798;2023-04-24T09:05:43;7.63;;;2.95;;
66702;SDS011;60933;46.398;-63.798;2023-04-24T09:08:11;9.73;;;3.35;;
66702;SDS011;60933;46.398;-63.798;2023-04-24T09:10:40;9.77;;;3.13;;
66702;SDS011;60933;46.398;-63.798;2023-04-24T09:13:06;12.45;;;2.90;;
66702;SDS011;60933;46.398;-63.798;2023-04-24T09:15:39;8.18;;;2.85;;
66702;SDS011;60933;46.398;-63.798;2023-04-24T09:18:06;11.30;;;3.80;;
66702;SDS011;60933;46.398;-63.798;2023-04-24T09:20:32;16.80;;;4.00;;
66702;SDS011;60933;46.398;-63.798;2023-04-24T09:23:01;14.15;;;4.05;;
66702;SDS011;60933;46.398;-63.798;2023-04-24T09:25:34;10.55;;;4.03;;
66702;SDS011;60933;46.398;-63.798;2023-04-24T09:28:04;13.55;;;3.65;;
66702;SDS011;60933;46.398;-63.798;2023-04-24T09:30:33;10.57;;;4.00;;
66702;SDS011;60933;46.398;-63.798;2023-04-24T09:35:50;10.32;;;3.45;;
66702;SDS011;60933;46.398;-63.798;2023-04-24T09:38:17;12.18;;;4.30;;
66702;SDS011;60933;46.398;-63.798;2023-04-24T09:40:43;12.35;;;3.80;;
66702;SDS011;60933;46.398;-63.798;2023-04-24T09:43:12;10.40;;;4.25;;
66702;SDS011;60933;46.398;-63.798;2023-04-24T09:45:39;13.30;;;4.28;;
66702;SDS011;60933;46.398;-63.798;2023-04-24T09:48:05;12.30;;;4.55;;
66702;SDS011;60933;46.398;-63.798;2023-04-24T09:50:35;10.60;;;3.72;;
66702;SDS011;60933;46.398;-63.798;2023-04-24T09:53:02;11.27;;;3.42;;
66702;SDS011;60933;46.398;-63.798;2023-04-24T09:55:30;14.20;;;4.25;;
66702;SDS011;60933;46.398;-63.798;2023-04-24T09:57:58;13.50;;;3.78;;
66702;SDS011;60933;46.398;-63.798;2023-04-24T10:00:26;7.65;;;3.67;;
66702;SDS011;60933;46.398;-63.798;2023-04-24T10:02:55;10.40;;;3.80;;
66702;SDS011;60933;46.398;-63.798;2023-04-24T10:08:15;14.63;;;3.83;;
66702;SDS011;60933;46.398;-63.798;2023-04-24T10:10:42;10.27;;;3.38;;
66702;SDS011;60933;46.398;-63.798;2023-04-24T10:13:11;12.65;;;3.80;;
66702;SDS011;60933;46.398;-63.798;2023-04-24T10:15:40;10.98;;;3.15;;
66702;SDS011;60933;46.398;-63.798;2023-04-24T10:18:07;9.80;;;3.58;;
66702;SDS011;60933;46.398;-63.798;2023-04-24T10:20:35;11.45;;;4.15;;
66702;SDS011;60933;46.398;-63.798;2023-04-24T10:23:03;8.68;;;3.05;;
66702;SDS011;60933;46.398;-63.798;2023-04-24T10:25:35;13.38;;;4.63;;
66702;SDS011;60933;46.398;-63.798;2023-04-24T10:28:04;8.98;;;3.20;;
66702;SDS011;60933;46.398;-63.798;2023-04-24T10:30:34;13.27;;;3.90;;
66702;SDS011;60933;46.398;-63.798;2023-04-24T10:33:01;8.95;;;3.22;;
66702;SDS011;60933;46.398;-63.798;2023-04-24T10:35:32;13.15;;;3.58;;
66702;SDS011;60933;46.398;-63.798;2023-04-24T10:38:14;16.67;;;4.05;;
66702;SDS011;60933;46.398;-63.798;2023-04-24T10:40:44;15.48;;;4.05;;
66702;SDS011;60933;46.398;-63.798;2023-04-24T10:43:10;10.13;;;3.45;;
66702;SDS011;60933;46.398;-63.798;2023-04-24T10:45:37;9.27;;;3.30;;
66702;SDS011;60933;46.398;-63.798;2023-04-24T10:48:07;10.75;;;3.42;;
66702;SDS011;60933;46.398;-63.798;2023-04-24T10:50:48;13.80;;;4.00;;
66702;SDS011;60933;46.398;-63.798;2023-04-24T10:53:18;11.18;;;3.60;;
66702;SDS011;60933;46.398;-63.798;2023-04-24T10:58:38;12.00;;;3.78;;
66702;SDS011;60933;46.398;-63.798;2023-04-24T11:01:25;14.85;;;3.47;;
66702;SDS011;60933;46.398;-63.798;2023-04-24T11:03:56;8.18;;;3.05;;
66702;SDS011;60933;46.398;-63.798;2023-04-24T11:06:33;6.85;;;2.97;;
66702;SDS011;60933;46.398;-63.798;2023-04-24T11:09:10;9.20;;;3.72;;
66702;SDS011;60933;46.398;-63.798;2023-04-24T11:11:45;9.38;;;3.25;;
66702;SDS011;60933;46.398;-63.798;2023-04-24T11:14:15;12.43;;;3.83;;
66702;SDS011;60933;46.398;-63.798;2023-04-24T11:16:45;11.40;;;3.95;;
66702;SDS011;60933;46.398;-63.798;2023-04-24T11:19:20;14.93;;;3.30;;
66702;SDS011;60933;46.398;-63.798;2023-04-24T11:21:59;15.63;;;4.00;;
66702;SDS011;60933;46.398;-63.798;2023-04-24T11:25:00;11.48;;;3.40;;
66702;SDS011;60933;46.398;-63.798;2023-04-24T11:27:20;12.18;;;3.30;;
66702;SDS011;60933;46.398;-63.798;2023-04-24T11:32:23;12.82;;;3.45;;
66702;SDS011;60933;46.398;-63.798;2023-04-24T11:34:55;14.82;;;3.60;;
66702;SDS011;60933;46.398;-63.798;2023-04-24T11:37:27;17.17;;;5.03;;
66702;SDS011;60933;46.398;-63.798;2023-04-24T11:39:58;12.68;;;4.30;;
66702;SDS011;60933;46.398;-63.798;2023-04-24T11:42:25;12.57;;;4.30;;
66702;SDS011;60933;46.398;-63.798;2023-04-24T11:44:52;10.45;;;4.00;;
66702;SDS011;60933;46.398;-63.798;2023-04-24T11:47:29;17.30;;;4.55;;
66702;SDS011;60933;46.398;-63.798;2023-04-24T11:49:58;15.98;;;4.43;;
66702;SDS011;60933;46.398;-63.798;2023-04-24T11:52:25;11.00;;;4.10;;
66702;SDS011;60933;46.398;-63.798;2023-04-24T11:54:52;17.35;;;4.35;;
66702;SDS011;60933;46.398;-63.798;2023-04-24T11:57:21;21.65;;;4.75;;
66702;SDS011;60933;46.398;-63.798;2023-04-24T11:59:49;16.75;;;5.03;;
66702;SDS011;60933;46.398;-63.798;2023-04-24T12:02:25;13.07;;;4.50;;
66702;SDS011;60933;46.398;-63.798;2023-04-24T12:04:52;15.00;;;5.22;;
66702;SDS011;60933;46.398;-63.798;2023-04-24T12:07:19;18.08;;;5.38;;
66702;SDS011;60933;46.398;-63.798;2023-04-24T12:09:46;20.52;;;5.90;;
66702;SDS011;60933;46.398;-63.798;2023-04-24T12:12:15;22.92;;;5.95;;
66702;SDS011;60933;46.398;-63.798;2023-04-24T12:14:43;14.20;;;4.85;;
66702;SDS011;60933;46.398;-63.798;2023-04-24T12:17:10;17.88;;;5.18;;
66702;SDS011;60933;46.398;-63.798;2023-04-24T12:19:36;17.75;;;5.20;;
66702;SDS011;60933;46.398;-63.798;2023-04-24T12:22:03;28.20;;;5.90;;
66702;SDS011;60933;46.398;-63.798;2023-04-24T12:24:31;20.70;;;5.28;;
66702;SDS011;60933;46.398;-63.798;2023-04-24T12:26:57;20.15;;;5.30;;
66702;SDS011;60933;46.398;-63.798;2023-04-24T12:29:24;14.95;;;4.70;;
66702;SDS011;60933;46.398;-63.798;2023-04-24T12:31:51;21.67;;;5.18;;
66702;SDS011;60933;46.398;-63.798;2023-04-24T12:34:18;11.57;;;3.88;;
66702;SDS011;60933;46.398;-63.798;2023-04-24T12:36:46;12.93;;;4.15;;
66702;SDS011;60933;46.398;-63.798;2023-04-24T12:39:18;12.23;;;4.07;;
66702;SDS011;60933;46.398;-63.798;2023-04-24T12:41:57;8.15;;;3.92;;
66702;SDS011;60933;46.398;-63.798;2023-04-24T12:44:34;10.00;;;3.85;;
66702;SDS011;60933;46.398;-63.798;2023-04-24T12:47:02;12.85;;;4.05;;
66702;SDS011;60933;46.398;-63.798;2023-04-24T12:49:29;16.05;;;5.25;;
66702;SDS011;60933;46.398;-63.798;2023-04-24T12:51:56;16.65;;;4.70;;
66702;SDS011;60933;46.398;-63.798;2023-04-24T12:54:22;14.73;;;3.95;;
66702;SDS011;60933;46.398;-63.798;2023-04-24T12:56:48;16.13;;;3.92;;
66702;SDS011;60933;46.398;-63.798;2023-04-24T12:59:15;15.85;;;4.20;;
66702;SDS011;60933;46.398;-63.798;2023-04-24T13:01:41;13.48;;;4.30;;
66702;SDS011;60933;46.398;-63.798;2023-04-24T13:04:07;15.40;;;4.85;;
66702;SDS011;60933;46.398;-63.798;2023-04-24T13:06:33;16.30;;;3.92;;
66702;SDS011;60933;46.398;-63.798;2023-04-24T13:08:59;11.93;;;3.60;;
66702;SDS011;60933;46.398;-63.798;2023-04-24T13:11:25;16.48;;;4.45;;
66702;SDS011;60933;46.398;-63.798;2023-04-24T13:13:51;14.73;;;4.05;;
66702;SDS011;60933;46.398;-63.798;2023-04-24T13:16:18;9.73;;;3.42;;
66702;SDS011;60933;46.398;-63.798;2023-04-24T13:18:44;11.93;;;3.08;;
66702;SDS011;60933;46.398;-63.798;2023-04-24T13:21:10;13.10;;;3.65;;
66702;SDS011;60933;46.398;-63.798;2023-04-24T13:23:36;14.38;;;4.13;;
66702;SDS011;60933;46.398;-63.798;2023-04-24T13:26:02;9.98;;;3.60;;
66702;SDS011;60933;46.398;-63.798;2023-04-24T13:28:28;10.38;;;2.90;;
66702;SDS011;60933;46.398;-63.798;2023-04-24T13:30:55;9.65;;;3.85;;
66702;SDS011;60933;46.398;-63.798;2023-04-24T13:33:21;17.10;;;4.57;;
66702;SDS011;60933;46.398;-63.798;2023-04-24T13:35:48;13.50;;;3.45;;
66702;SDS011;60933;46.398;-63.798;2023-04-24T13:38:14;13.93;;;4.10;;
66702;SDS011;60933;46.398;-63.798;2023-04-24T13:40:40;8.85;;;3.80;;
66702;SDS011;60933;46.398;-63.798;2023-04-24T13:43:06;11.07;;;4.10;;
66702;SDS011;60933;46.398;-63.798;2023-04-24T13:45:32;13.60;;;4.20;;
66702;SDS011;60933;46.398;-63.798;2023-04-24T13:47:58;12.63;;;3.78;;
66702;SDS011;60933;46.398;-63.798;2023-04-24T13:50:25;9.77;;;3.85;;
66702;SDS011;60933;46.398;-63.798;2023-04-24T13:52:51;8.63;;;3.92;;
66702;SDS011;60933;46.398;-63.798;2023-04-24T13:55:17;11.25;;;3.97;;
66702;SDS011;60933;46.398;-63.798;2023-04-24T13:57:43;11.60;;;3.60;;
66702;SDS011;60933;46.398;-63.798;2023-04-24T14:00:10;13.82;;;3.53;;
66702;SDS011;60933;46.398;-63.798;2023-04-24T14:02:36;10.18;;;3.65;;
66702;SDS011;60933;46.398;-63.798;2023-04-24T14:05:02;11.48;;;3.20;;
66702;SDS011;60933;46.398;-63.798;2023-04-24T14:07:28;14.45;;;3.97;;
66702;SDS011;60933;46.398;-63.798;2023-04-24T14:09:57;12.13;;;3.70;;
66702;SDS011;60933;46.398;-63.798;2023-04-24T14:12:23;10.18;;;4.22;;
66702;SDS011;60933;46.398;-63.798;2023-04-24T14:14:49;11.18;;;4.15;;
66702;SDS011;60933;46.398;-63.798;2023-04-24T14:17:15;15.15;;;4.88;;
66702;SDS011;60933;46.398;-63.798;2023-04-24T14:19:41;13.48;;;4.57;;
66702;SDS011;60933;46.398;-63.798;2023-04-24T14:22:07;10.68;;;3.75;;
66702;SDS011;60933;46.398;-63.798;2023-04-24T14:24:33;12.27;;;3.80;;
66702;SDS011;60933;46.398;-63.798;2023-04-24T14:26:59;14.25;;;4.03;;
66702;SDS011;60933;46.398;-63.798;2023-04-24T14:29:26;12.18;;;3.92;;
66702;SDS011;60933;46.398;-63.798;2023-04-24T14:31:52;12.60;;;4.10;;